sensor_id;sensor_type;location;lat;lon;timestamp;pressure;altitude;pressure_sealevel;temperature;humidity
63204;BME280;49297;43.210;27.914;2023-04-08T00:02:23;101636.94;;;8.50;66.67
63204;BME280;49297;43.210;27.914;2023-04-08T00:04:49;101640.66;;;8.47;67.46
63204;BME280;49297;43.210;27.914;2023-04-08T00:07:14;101634.81;;;8.42;67.16
63204;BME280;49297;43.210;27.914;2023-04-08T00:09:40;101634.53;;;8.32;67.35
63204;BME280;49297;43.210;27.914;2023-04-08T00:12:05;101628.50;;;8.30;66.83
63204;BME280;49297;43.210;27.914;2023-04-08T00:14:31;101634.84;;;8.28;67.18
63204;BME280;49297;43.210;27.914;2023-04-08T00:16:57;101630.59;;;8.25;66.90
63204;BME280;49297;43.210;27.914;2023-04-08T00:19:22;101636.19;;;8.20;66.76
63204;BME280;49297;43.210;27.914;2023-04-08T00:21:49;101632.91;;;8.17;66.64
63204;BME280;49297;43.210;27.914;2023-04-08T00:24:15;101625.38;;;8.11;66.24
63204;BME280;49297;43.210;27.914;2023-04-08T00:26:41;101633.53;;;8.08;66.34
63204;BME280;49297;43.210;27.914;2023-04-08T00:29:07;101627.50;;;8.06;66.45
63204;BME280;49297;43.210;27.914;2023-04-08T00:31:32;101638.06;;;8.06;66.26
63204;BME280;49297;43.210;27.914;2023-04-08T00:33:58;101636.25;;;8.06;66.09
63204;BME280;49297;43.210;27.914;2023-04-08T00:36:23;101638.06;;;8.06;66.49
63204;BME280;49297;43.210;27.914;2023-04-08T00:38:49;101638.06;;;8.06;66.28
63204;BME280;49297;43.210;27.914;2023-04-08T00:41:14;101643.50;;;8.03;65.81
63204;BME280;49297;43.210;27.914;2023-04-08T00:43:40;101641.72;;;8.03;66.24
63204;BME280;49297;43.210;27.914;2023-04-08T00:46:05;101636.44;;;8.03;65.75
63204;BME280;49297;43.210;27.914;2023-04-08T00:48:31;101634.94;;;7.99;65.27
63204;BME280;49297;43.210;27.914;2023-04-08T00:50:57;101637.69;;;7.97;65.60
63204;BME280;49297;43.210;27.914;2023-04-08T00:53:22;101632.50;;;7.96;65.67
63204;BME280;49297;43.210;27.914;2023-04-08T00:55:48;101635.31;;;7.93;65.72
63204;BME280;49297;43.210;27.914;2023-04-08T00:58:13;101631.00;;;7.92;65.55
63204;BME280;49297;43.210;27.914;2023-04-08T01:00:41;101637.97;;;7.93;65.93
63204;BME280;49297;43.210;27.914;2023-04-08T01:08:34;101634.03;;;7.86;66.58
63204;BME280;49297;43.210;27.914;2023-04-08T01:11:01;101634.13;;;7.84;66.28
63204;BME280;49297;43.210;27.914;2023-04-08T01:13:29;101633.47;;;7.80;66.29
63204;BME280;49297;43.210;27.914;2023-04-08T01:15:55;101629.91;;;7.81;67.09
63204;BME280;49297;43.210;27.914;2023-04-08T01:18:21;101628.19;;;7.80;66.69
63204;BME280;49297;43.210;27.914;2023-04-08T01:20:47;101629.91;;;7.81;66.19
63204;BME280;49297;43.210;27.914;2023-04-08T01:25:50;101634.13;;;7.84;65.61
63204;BME280;49297;43.210;27.914;2023-04-08T01:28:17;101627.06;;;7.85;65.51
63204;BME280;49297;43.210;27.914;2023-04-08T01:30:43;101635.63;;;7.88;65.52
63204;BME280;49297;43.210;27.914;2023-04-08T01:33:10;101627.63;;;7.90;65.37
63204;BME280;49297;43.210;27.914;2023-04-08T01:35:36;101632.69;;;7.93;65.76
63204;BME280;49297;43.210;27.914;2023-04-08T01:38:02;101630.06;;;7.93;64.90
63204;BME280;49297;43.210;27.914;2023-04-08T01:40:31;101624.78;;;7.93;65.01
63204;BME280;49297;43.210;27.914;2023-04-08T01:42:57;101630.78;;;7.95;64.97
63204;BME280;49297;43.210;27.914;2023-04-08T01:45:23;101630.69;;;7.96;64.64
63204;BME280;49297;43.210;27.914;2023-04-08T01:47:49;101637.69;;;7.97;64.54
63204;BME280;49297;43.210;27.914;2023-04-08T01:50:15;101632.41;;;7.97;64.30
63204;BME280;49297;43.210;27.914;2023-04-08T01:52:45;101630.59;;;7.98;64.71
63204;BME280;49297;43.210;27.914;2023-04-08T01:55:12;101624.50;;;7.97;64.51
63204;BME280;49297;43.210;27.914;2023-04-08T01:57:37;101627.03;;;7.99;64.56
63204;BME280;49297;43.210;27.914;2023-04-08T02:00:07;101623.44;;;8.00;64.43
63204;BME280;49297;43.210;27.914;2023-04-08T02:02:35;101617.31;;;7.99;64.24
63204;BME280;49297;43.210;27.914;2023-04-08T02:05:00;101626.94;;;8.00;64.59
63204;BME280;49297;43.210;27.914;2023-04-08T02:07:26;101622.59;;;7.99;64.70
63204;BME280;49297;43.210;27.914;2023-04-08T02:09:51;101616.41;;;8.00;64.57
63204;BME280;49297;43.210;27.914;2023-04-08T02:12:18;101626.94;;;8.00;64.76
63204;BME280;49297;43.210;27.914;2023-04-08T02:14:44;101625.16;;;8.01;64.08
63204;BME280;49297;43.210;27.914;2023-04-08T02:17:20;101619.97;;;7.99;64.36
63204;BME280;49297;43.210;27.914;2023-04-08T02:19:52;101633.91;;;8.01;64.77
63204;BME280;49297;43.210;27.914;2023-04-08T02:22:44;101632.09;;;8.02;64.82
63204;BME280;49297;43.210;27.914;2023-04-08T02:25:07;101632.00;;;8.04;64.87
63204;BME280;49297;43.210;27.914;2023-04-08T02:27:33;101638.16;;;8.04;64.43
63204;BME280;49297;43.210;27.914;2023-04-08T02:30:01;101651.34;;;8.04;64.65
63204;BME280;49297;43.210;27.914;2023-04-08T02:32:27;101653.75;;;8.07;63.92
63204;BME280;49297;43.210;27.914;2023-04-08T02:34:55;101646.47;;;8.11;64.44
63204;BME280;49297;43.210;27.914;2023-04-08T02:37:20;101645.66;;;8.10;64.41
63204;BME280;49297;43.210;27.914;2023-04-08T02:39:46;101650.19;;;8.08;64.49
63204;BME280;49297;43.210;27.914;2023-04-08T02:42:14;101654.63;;;8.08;64.46
63204;BME280;49297;43.210;27.914;2023-04-08T02:44:39;101654.16;;;8.01;65.05
63204;BME280;49297;43.210;27.914;2023-04-08T02:47:05;101663.31;;;7.95;65.31
63204;BME280;49297;43.210;27.914;2023-04-08T02:49:30;101664.44;;;7.91;65.96
63204;BME280;49297;43.210;27.914;2023-04-08T02:51:56;101662.94;;;7.87;66.75
63204;BME280;49297;43.210;27.914;2023-04-08T02:54:21;101664.81;;;7.85;66.50
63204;BME280;49297;43.210;27.914;2023-04-08T02:56:47;101661.44;;;7.83;67.28
63204;BME280;49297;43.210;27.914;2023-04-08T02:59:12;101658.16;;;7.79;66.91
63204;BME280;49297;43.210;27.914;2023-04-08T03:01:38;101660.13;;;7.76;67.64
63204;BME280;49297;43.210;27.914;2023-04-08T03:04:03;101663.06;;;7.71;67.73
63204;BME280;49297;43.210;27.914;2023-04-08T03:06:29;101658.94;;;7.67;67.60
63204;BME280;49297;43.210;27.914;2023-04-08T03:08:56;101661.56;;;7.67;68.03
63204;BME280;49297;43.210;27.914;2023-04-08T03:11:21;101661.66;;;7.66;68.52
63204;BME280;49297;43.210;27.914;2023-04-08T03:13:47;101671.44;;;7.63;68.28
63204;BME280;49297;43.210;27.914;2023-04-08T03:16:13;101670.69;;;7.61;68.54
63204;BME280;49297;43.210;27.914;2023-04-08T03:18:38;101669.94;;;7.59;68.26
63204;BME280;49297;43.210;27.914;2023-04-08T03:21:04;101664.78;;;7.58;68.18
63204;BME280;49297;43.210;27.914;2023-04-08T03:23:29;101668.44;;;7.55;68.60
63204;BME280;49297;43.210;27.914;2023-04-08T03:25:55;101680.00;;;7.53;68.26
63204;BME280;49297;43.210;27.914;2023-04-08T03:28:20;101674.00;;;7.51;68.78
63204;BME280;49297;43.210;27.914;2023-04-08T03:30:46;101674.19;;;7.48;68.02
63204;BME280;49297;43.210;27.914;2023-04-08T03:33:11;101669.97;;;7.45;68.01
63204;BME280;49297;43.210;27.914;2023-04-08T03:35:37;101671.81;;;7.43;68.14
63204;BME280;49297;43.210;27.914;2023-04-08T03:38:03;101680.75;;;7.40;67.93
63204;BME280;49297;43.210;27.914;2023-04-08T03:40:28;101679.94;;;7.40;68.27
63204;BME280;49297;43.210;27.914;2023-04-08T03:42:54;101687.06;;;7.38;67.87
63204;BME280;49297;43.210;27.914;2023-04-08T03:45:20;101688.94;;;7.36;67.83
63204;BME280;49297;43.210;27.914;2023-04-08T03:47:45;101691.78;;;7.33;66.80
63204;BME280;49297;43.210;27.914;2023-04-08T03:50:11;101694.41;;;7.33;66.49
63204;BME280;49297;43.210;27.914;2023-04-08T03:52:36;101700.53;;;7.33;66.25
63204;BME280;49297;43.210;27.914;2023-04-08T03:55:02;101701.44;;;7.32;66.85
63204;BME280;49297;43.210;27.914;2023-04-08T03:57:27;101701.44;;;7.32;66.23
63204;BME280;49297;43.210;27.914;2023-04-08T03:59:53;101705.78;;;7.33;66.61
63204;BME280;49297;43.210;27.914;2023-04-08T04:02:19;101697.06;;;7.33;66.69
63204;BME280;49297;43.210;27.914;2023-04-08T04:04:44;101698.72;;;7.34;65.97
63204;BME280;49297;43.210;27.914;2023-04-08T04:07:10;101708.25;;;7.36;66.35
63204;BME280;49297;43.210;27.914;2023-04-08T04:09:35;101707.19;;;7.39;65.84
63204;BME280;49297;43.210;27.914;2023-04-08T04:12:01;101719.31;;;7.41;65.95
63204;BME280;49297;43.210;27.914;2023-04-08T04:14:28;101719.91;;;7.47;65.79
63204;BME280;49297;43.210;27.914;2023-04-08T04:16:54;101724.91;;;7.51;65.24
63204;BME280;49297;43.210;27.914;2023-04-08T04:19:20;101712.31;;;7.56;65.43
63204;BME280;49297;43.210;27.914;2023-04-08T04:21:45;101716.34;;;7.62;64.97
63204;BME280;49297;43.210;27.914;2023-04-08T04:24:11;101727.38;;;7.69;65.06
63204;BME280;49297;43.210;27.914;2023-04-08T04:26:38;101718.97;;;7.76;65.26
63204;BME280;49297;43.210;27.914;2023-04-08T04:29:04;101721.13;;;7.84;64.70
63204;BME280;49297;43.210;27.914;2023-04-08T04:31:30;101716.16;;;7.94;64.48
63204;BME280;49297;43.210;27.914;2023-04-08T04:33:55;101712.09;;;8.03;64.71
63204;BME280;49297;43.210;27.914;2023-04-08T04:36:21;101712.44;;;8.11;64.26
63204;BME280;49297;43.210;27.914;2023-04-08T04:38:48;101710.06;;;8.20;64.11
63204;BME280;49297;43.210;27.914;2023-04-08T04:41:14;101708.03;;;8.38;65.22
63204;BME280;49297;43.210;27.914;2023-04-08T04:43:39;101709.06;;;8.50;64.98
63204;BME280;49297;43.210;27.914;2023-04-08T04:46:05;101706.66;;;8.60;65.50
63204;BME280;49297;43.210;27.914;2023-04-08T04:48:33;101701.75;;;8.68;65.86
63204;BME280;49297;43.210;27.914;2023-04-08T04:50:59;101705.16;;;8.96;65.71
63204;BME280;49297;43.210;27.914;2023-04-08T04:53:28;101708.69;;;9.09;65.74
63204;BME280;49297;43.210;27.914;2023-04-08T04:55:54;101707.63;;;9.12;65.48
63204;BME280;49297;43.210;27.914;2023-04-08T04:58:19;101708.47;;;9.12;65.17
63204;BME280;49297;43.210;27.914;2023-04-08T05:00:45;101713.53;;;9.15;65.51
63204;BME280;49297;43.210;27.914;2023-04-08T05:03:11;101720.22;;;9.21;65.13
63204;BME280;49297;43.210;27.914;2023-04-08T05:05:37;101716.44;;;9.25;65.27
63204;BME280;49297;43.210;27.914;2023-04-08T05:08:02;101723.81;;;9.33;64.68
63204;BME280;49297;43.210;27.914;2023-04-08T05:10:28;101723.38;;;9.39;64.73
63204;BME280;49297;43.210;27.914;2023-04-08T05:12:53;101722.00;;;9.46;64.79
63204;BME280;49297;43.210;27.914;2023-04-08T05:15:19;101722.66;;;9.50;65.24
63204;BME280;49297;43.210;27.914;2023-04-08T05:17:45;101722.34;;;9.55;64.44
63204;BME280;49297;43.210;27.914;2023-04-08T05:20:11;101723.81;;;9.59;64.64
63204;BME280;49297;43.210;27.914;2023-04-08T05:22:36;101731.31;;;9.65;64.41
63204;BME280;49297;43.210;27.914;2023-04-08T05:25:02;101719.38;;;9.72;64.31
63204;BME280;49297;43.210;27.914;2023-04-08T05:27:28;101725.28;;;9.76;64.73
63204;BME280;49297;43.210;27.914;2023-04-08T05:29:53;101728.47;;;9.81;64.73
63204;BME280;49297;43.210;27.914;2023-04-08T05:32:19;101728.00;;;9.87;64.30
63204;BME280;49297;43.210;27.914;2023-04-08T05:34:45;101729.81;;;9.86;64.39
63204;BME280;49297;43.210;27.914;2023-04-08T05:37:10;101728.53;;;9.92;64.86
63204;BME280;49297;43.210;27.914;2023-04-08T05:39:36;101734.16;;;10.00;64.77
63204;BME280;49297;43.210;27.914;2023-04-08T05:42:01;101722.06;;;10.09;64.23
63204;BME280;49297;43.210;27.914;2023-04-08T05:44:27;101725.81;;;10.18;64.62
63204;BME280;49297;43.210;27.914;2023-04-08T05:46:53;101728.88;;;10.24;64.40
63204;BME280;49297;43.210;27.914;2023-04-08T05:49:20;101733.97;;;10.27;64.42
63204;BME280;49297;43.210;27.914;2023-04-08T05:51:45;101735.34;;;10.33;64.59
63204;BME280;49297;43.210;27.914;2023-04-08T05:54:11;101730.38;;;10.28;64.70
63204;BME280;49297;43.210;27.914;2023-04-08T05:56:36;101725.81;;;10.31;65.35
63204;BME280;49297;43.210;27.914;2023-04-08T05:59:03;101732.47;;;10.36;65.44
63204;BME280;49297;43.210;27.914;2023-04-08T06:01:29;101729.38;;;10.42;65.21
63204;BME280;49297;43.210;27.914;2023-04-08T06:03:54;101734.34;;;10.47;65.69
63204;BME280;49297;43.210;27.914;2023-04-08T06:06:21;101747.69;;;10.45;65.37
63204;BME280;49297;43.210;27.914;2023-04-08T06:08:46;101747.19;;;10.40;65.76
63204;BME280;49297;43.210;27.914;2023-04-08T06:11:12;101734.78;;;10.41;65.80
63204;BME280;49297;43.210;27.914;2023-04-08T06:13:38;101746.84;;;10.45;65.87
63204;BME280;49297;43.210;27.914;2023-04-08T06:16:15;101739.78;;;10.57;66.02
63204;BME280;49297;43.210;27.914;2023-04-08T06:18:41;101741.59;;;10.56;65.30
63204;BME280;49297;43.210;27.914;2023-04-08T06:21:15;101739.59;;;10.60;65.59
63204;BME280;49297;43.210;27.914;2023-04-08T06:23:41;101748.16;;;10.63;65.39
63204;BME280;49297;43.210;27.914;2023-04-08T06:26:08;101743.47;;;10.67;65.42
63204;BME280;49297;43.210;27.914;2023-04-08T06:28:34;101746.50;;;10.74;65.90
63204;BME280;49297;43.210;27.914;2023-04-08T06:31:01;101749.38;;;10.71;65.54
63204;BME280;49297;43.210;27.914;2023-04-08T06:33:27;101751.81;;;10.74;65.54
63204;BME280;49297;43.210;27.914;2023-04-08T06:36:03;101739.63;;;10.71;65.11
63204;BME280;49297;43.210;27.914;2023-04-08T06:38:29;101741.78;;;10.66;65.33
63204;BME280;49297;43.210;27.914;2023-04-08T06:40:54;101742.41;;;10.70;65.58
63204;BME280;49297;43.210;27.914;2023-04-08T06:43:20;101740.38;;;10.73;65.62
63204;BME280;49297;43.210;27.914;2023-04-08T06:45:46;101732.44;;;10.73;65.66
63204;BME280;49297;43.210;27.914;2023-04-08T06:48:12;101741.63;;;10.80;65.36
63204;BME280;49297;43.210;27.914;2023-04-08T06:50:37;101739.59;;;10.84;65.64
63204;BME280;49297;43.210;27.914;2023-04-08T06:53:03;101738.28;;;10.90;65.68
63204;BME280;49297;43.210;27.914;2023-04-08T06:55:30;101742.59;;;10.91;65.54
63204;BME280;49297;43.210;27.914;2023-04-08T06:57:56;101736.34;;;10.92;65.10
63204;BME280;49297;43.210;27.914;2023-04-08T07:00:22;101749.38;;;10.95;65.38
63204;BME280;49297;43.210;27.914;2023-04-08T07:02:47;101754.69;;;10.95;64.92
63204;BME280;49297;43.210;27.914;2023-04-08T07:05:13;101763.66;;;10.81;65.16
63204;BME280;49297;43.210;27.914;2023-04-08T07:07:38;101761.28;;;10.65;65.17
63204;BME280;49297;43.210;27.914;2023-04-08T07:10:04;101763.94;;;10.65;65.38
63204;BME280;49297;43.210;27.914;2023-04-08T07:12:30;101766.78;;;10.62;65.85
63204;BME280;49297;43.210;27.914;2023-04-08T07:14:55;101763.31;;;10.61;65.73
63204;BME280;49297;43.210;27.914;2023-04-08T07:17:21;101755.94;;;10.54;65.94
63204;BME280;49297;43.210;27.914;2023-04-08T07:19:46;101766.28;;;10.57;66.12
63204;BME280;49297;43.210;27.914;2023-04-08T07:22:13;101770.63;;;10.58;66.42
63204;BME280;49297;43.210;27.914;2023-04-08T07:24:39;101770.63;;;10.58;66.13
63204;BME280;49297;43.210;27.914;2023-04-08T07:27:07;101773.28;;;10.58;66.46
63204;BME280;49297;43.210;27.914;2023-04-08T07:29:32;101776.59;;;10.48;66.62
63204;BME280;49297;43.210;27.914;2023-04-08T07:31:58;101782.00;;;10.47;67.11
63204;BME280;49297;43.210;27.914;2023-04-08T07:34:23;101783.69;;;10.48;66.93
63204;BME280;49297;43.210;27.914;2023-04-08T07:36:49;101786.84;;;10.53;67.12
63204;BME280;49297;43.210;27.914;2023-04-08T07:39:15;101783.88;;;10.58;66.50
63204;BME280;49297;43.210;27.914;2023-04-08T07:41:40;101780.72;;;10.53;66.89
63204;BME280;49297;43.210;27.914;2023-04-08T07:44:06;101781.91;;;10.48;67.01
63204;BME280;49297;43.210;27.914;2023-04-08T07:46:35;101784.44;;;10.50;67.17
63204;BME280;49297;43.210;27.914;2023-04-08T07:49:00;101783.16;;;10.56;67.17
63204;BME280;49297;43.210;27.914;2023-04-08T07:51:26;101785.56;;;10.59;66.95
63204;BME280;49297;43.210;27.914;2023-04-08T07:53:51;101779.72;;;10.66;67.63
63204;BME280;49297;43.210;27.914;2023-04-08T07:56:17;101785.41;;;10.73;67.18
63204;BME280;49297;43.210;27.914;2023-04-08T07:58:43;101790.13;;;10.81;66.80
63204;BME280;49297;43.210;27.914;2023-04-08T08:01:15;101786.50;;;10.82;67.12
63204;BME280;49297;43.210;27.914;2023-04-08T08:03:43;101795.03;;;10.74;66.85
63204;BME280;49297;43.210;27.914;2023-04-08T08:06:10;101789.22;;;10.69;67.26
63204;BME280;49297;43.210;27.914;2023-04-08T08:08:35;101789.69;;;10.63;67.45
63204;BME280;49297;43.210;27.914;2023-04-08T08:11:01;101787.66;;;10.66;67.70
63204;BME280;49297;43.210;27.914;2023-04-08T08:13:26;101785.47;;;10.84;67.24
63204;BME280;49297;43.210;27.914;2023-04-08T08:15:52;101788.44;;;11.04;67.00
63204;BME280;49297;43.210;27.914;2023-04-08T08:18:18;101791.00;;;11.17;66.58
63204;BME280;49297;43.210;27.914;2023-04-08T08:20:44;101790.91;;;11.30;66.44
63204;BME280;49297;43.210;27.914;2023-04-08T08:23:09;101791.56;;;11.45;66.07
63204;BME280;49297;43.210;27.914;2023-04-08T08:25:35;101792.91;;;11.61;65.79
63204;BME280;49297;43.210;27.914;2023-04-08T08:28:01;101795.22;;;11.77;65.21
63204;BME280;49297;43.210;27.914;2023-04-08T08:30:26;101803.81;;;11.92;64.99
63204;BME280;49297;43.210;27.914;2023-04-08T08:32:52;101804.19;;;11.99;64.28
63204;BME280;49297;43.210;27.914;2023-04-08T08:35:17;101796.25;;;12.10;64.10
63204;BME280;49297;43.210;27.914;2023-04-08T08:37:43;101807.09;;;12.07;63.44
63204;BME280;49297;43.210;27.914;2023-04-08T08:40:09;101805.31;;;11.96;63.35
63204;BME280;49297;43.210;27.914;2023-04-08T08:42:36;101809.13;;;11.92;63.40
63204;BME280;49297;43.210;27.914;2023-04-08T08:45:04;101802.03;;;11.93;63.62
63204;BME280;49297;43.210;27.914;2023-04-08T08:47:32;101799.50;;;12.03;63.59
63204;BME280;49297;43.210;27.914;2023-04-08T08:49:58;101806.50;;;12.15;63.62
63204;BME280;49297;43.210;27.914;2023-04-08T08:52:24;101809.03;;;12.16;63.13
63204;BME280;49297;43.210;27.914;2023-04-08T08:54:57;101802.28;;;12.24;63.03
63204;BME280;49297;43.210;27.914;2023-04-08T08:57:26;101813.59;;;12.26;63.03
63204;BME280;49297;43.210;27.914;2023-04-08T08:59:54;101823.75;;;12.21;62.66
63204;BME280;49297;43.210;27.914;2023-04-08T09:02:26;101820.38;;;12.07;62.81
63204;BME280;49297;43.210;27.914;2023-04-08T09:04:55;101820.00;;;12.00;62.92
63204;BME280;49297;43.210;27.914;2023-04-08T09:07:23;101821.03;;;11.87;63.56
63204;BME280;49297;43.210;27.914;2023-04-08T09:09:50;101820.94;;;11.88;63.67
63204;BME280;49297;43.210;27.914;2023-04-08T09:12:16;101813.47;;;11.82;63.93
63204;BME280;49297;43.210;27.914;2023-04-08T09:14:43;101817.41;;;11.65;64.57
63204;BME280;49297;43.210;27.914;2023-04-08T09:17:14;101816.81;;;11.73;64.87
63204;BME280;49297;43.210;27.914;2023-04-08T09:20:02;101824.00;;;11.95;64.72
63204;BME280;49297;43.210;27.914;2023-04-08T09:22:26;101824.72;;;12.19;63.95
63204;BME280;49297;43.210;27.914;2023-04-08T09:24:52;101822.91;;;12.43;63.45
63204;BME280;49297;43.210;27.914;2023-04-08T09:27:32;101831.78;;;12.64;62.98
63204;BME280;49297;43.210;27.914;2023-04-08T09:30:13;101825.13;;;12.70;61.78
63204;BME280;49297;43.210;27.914;2023-04-08T09:32:50;101831.28;;;12.70;61.35
63204;BME280;49297;43.210;27.914;2023-04-08T09:35:19;101826.91;;;12.81;61.25
63204;BME280;49297;43.210;27.914;2023-04-08T09:37:45;101825.78;;;12.94;61.24
63204;BME280;49297;43.210;27.914;2023-04-08T09:40:13;101817.66;;;13.07;61.30
63204;BME280;49297;43.210;27.914;2023-04-08T09:42:56;101824.38;;;13.11;60.77
63204;BME280;49297;43.210;27.914;2023-04-08T09:45:25;101819.53;;;13.17;60.51
63204;BME280;49297;43.210;27.914;2023-04-08T09:50:49;101823.50;;;13.33;59.95
63204;BME280;49297;43.210;27.914;2023-04-08T09:53:23;101817.81;;;13.27;59.86
63204;BME280;49297;43.210;27.914;2023-04-08T09:55:52;101823.63;;;13.32;60.26
63204;BME280;49297;43.210;27.914;2023-04-08T09:58:20;101815.56;;;13.43;60.80
63204;BME280;49297;43.210;27.914;2023-04-08T10:00:48;101811.16;;;13.54;60.64
63204;BME280;49297;43.210;27.914;2023-04-08T10:06:01;101803.53;;;13.70;60.49
63204;BME280;49297;43.210;27.914;2023-04-08T10:08:28;101817.34;;;13.85;60.20
63204;BME280;49297;43.210;27.914;2023-04-08T10:10:55;101804.91;;;13.85;59.69
63204;BME280;49297;43.210;27.914;2023-04-08T10:13:20;101805.81;;;13.75;59.67
63204;BME280;49297;43.210;27.914;2023-04-08T10:15:47;101809.31;;;13.75;59.57
63204;BME280;49297;43.210;27.914;2023-04-08T10:23:04;101799.44;;;13.35;60.42
63204;BME280;49297;43.210;27.914;2023-04-08T10:25:34;101797.66;;;13.45;60.25
63204;BME280;49297;43.210;27.914;2023-04-08T10:28:00;101803.75;;;13.36;60.21
63204;BME280;49297;43.210;27.914;2023-04-08T10:32:54;101791.28;;;13.37;60.51
63204;BME280;49297;43.210;27.914;2023-04-08T10:35:36;101786.72;;;13.39;60.05
63204;BME280;49297;43.210;27.914;2023-04-08T10:38:07;101787.13;;;13.44;59.76
63204;BME280;49297;43.210;27.914;2023-04-08T10:40:36;101788.38;;;13.40;60.13
63204;BME280;49297;43.210;27.914;2023-04-08T10:43:07;101788.25;;;13.41;59.38
63204;BME280;49297;43.210;27.914;2023-04-08T10:45:32;101796.69;;;13.46;59.34
63204;BME280;49297;43.210;27.914;2023-04-08T10:50:50;101807.97;;;13.60;59.00
63204;BME280;49297;43.210;27.914;2023-04-08T10:53:17;101797.38;;;13.69;58.88
63204;BME280;49297;43.210;27.914;2023-04-08T10:55:43;101808.59;;;13.94;58.43
63204;BME280;49297;43.210;27.914;2023-04-08T10:58:10;101804.00;;;14.06;57.23
63204;BME280;49297;43.210;27.914;2023-04-08T11:00:38;101796.06;;;14.25;57.51
63204;BME280;49297;43.210;27.914;2023-04-08T11:03:08;101796.94;;;14.36;57.28
63204;BME280;49297;43.210;27.914;2023-04-08T11:05:35;101798.03;;;14.14;56.55
63204;BME280;49297;43.210;27.914;2023-04-08T11:08:02;101802.59;;;14.02;56.65
63204;BME280;49297;43.210;27.914;2023-04-08T11:10:29;101797.66;;;14.28;56.61
63204;BME280;49297;43.210;27.914;2023-04-08T11:12:55;101789.28;;;14.42;56.43
63204;BME280;49297;43.210;27.914;2023-04-08T11:15:25;101797.69;;;14.57;56.52
63204;BME280;49297;43.210;27.914;2023-04-08T11:17:54;101790.50;;;14.38;56.35
63204;BME280;49297;43.210;27.914;2023-04-08T11:20:20;101788.41;;;14.32;56.90
63204;BME280;49297;43.210;27.914;2023-04-08T11:22:47;101779.53;;;14.22;56.90
63204;BME280;49297;43.210;27.914;2023-04-08T11:25:12;101794.28;;;13.95;56.58
63204;BME280;49297;43.210;27.914;2023-04-08T11:27:38;101783.28;;;13.79;57.42
63204;BME280;49297;43.210;27.914;2023-04-08T11:30:05;101775.50;;;13.87;57.31
63204;BME280;49297;43.210;27.914;2023-04-08T11:32:31;101770.97;;;14.18;57.56
63204;BME280;49297;43.210;27.914;2023-04-08T11:35:01;101772.38;;;15.02;56.01
63204;BME280;49297;43.210;27.914;2023-04-08T11:37:46;101774.31;;;15.86;54.34
63204;BME280;49297;43.210;27.914;2023-04-08T11:40:18;101777.84;;;16.14;51.50
63204;BME280;49297;43.210;27.914;2023-04-08T11:42:44;101766.91;;;16.35;51.73
63204;BME280;49297;43.210;27.914;2023-04-08T11:45:13;101770.34;;;17.09;51.05
63204;BME280;49297;43.210;27.914;2023-04-08T11:47:40;101765.00;;;17.36;49.22
63204;BME280;49297;43.210;27.914;2023-04-08T11:50:06;101766.09;;;17.51;48.73
63204;BME280;49297;43.210;27.914;2023-04-08T11:52:46;101761.56;;;17.78;48.02
63204;BME280;49297;43.210;27.914;2023-04-08T11:57:47;101759.88;;;18.62;45.97
63204;BME280;49297;43.210;27.914;2023-04-08T12:00:15;101762.59;;;18.87;44.64
63204;BME280;49297;43.210;27.914;2023-04-08T12:02:41;101751.88;;;19.03;44.19
63204;BME280;49297;43.210;27.914;2023-04-08T12:05:07;101753.22;;;19.15;44.01
63204;BME280;49297;43.210;27.914;2023-04-08T12:07:32;101749.47;;;18.67;43.53
63204;BME280;49297;43.210;27.914;2023-04-08T12:09:58;101740.19;;;18.20;44.87
63204;BME280;49297;43.210;27.914;2023-04-08T12:12:24;101745.72;;;18.27;44.97
63204;BME280;49297;43.210;27.914;2023-04-08T12:14:49;101750.78;;;18.46;44.93
63204;BME280;49297;43.210;27.914;2023-04-08T12:17:15;101741.78;;;18.80;44.29
63204;BME280;49297;43.210;27.914;2023-04-08T12:19:40;101745.31;;;18.64;43.79
63204;BME280;49297;43.210;27.914;2023-04-08T12:22:06;101747.94;;;18.48;44.54
63204;BME280;49297;43.210;27.914;2023-04-08T12:24:32;101740.94;;;18.63;44.27
63204;BME280;49297;43.210;27.914;2023-04-08T12:26:57;101735.28;;;18.83;44.19
63204;BME280;49297;43.210;27.914;2023-04-08T12:29:23;101738.44;;;19.28;43.67
63204;BME280;49297;43.210;27.914;2023-04-08T12:31:48;101732.47;;;19.65;43.17
63204;BME280;49297;43.210;27.914;2023-04-08T12:34:14;101733.56;;;19.95;42.24
63204;BME280;49297;43.210;27.914;2023-04-08T12:36:41;101732.97;;;19.69;42.14
63204;BME280;49297;43.210;27.914;2023-04-08T12:39:07;101729.47;;;19.60;42.19
63204;BME280;49297;43.210;27.914;2023-04-08T12:41:32;101714.31;;;18.87;42.64
63204;BME280;49297;43.210;27.914;2023-04-08T12:43:58;101720.09;;;18.24;44.57
63204;BME280;49297;43.210;27.914;2023-04-08T12:46:23;101716.06;;;18.20;44.86
63204;BME280;49297;43.210;27.914;2023-04-08T12:48:49;101726.28;;;18.25;44.75
63204;BME280;49297;43.210;27.914;2023-04-08T12:51:14;101725.44;;;18.24;44.87
63204;BME280;49297;43.210;27.914;2023-04-08T12:53:40;101701.69;;;18.38;46.26
63204;BME280;49297;43.210;27.914;2023-04-08T12:56:05;101705.06;;;18.73;45.78
63204;BME280;49297;43.210;27.914;2023-04-08T12:58:31;101721.03;;;18.99;44.70
63204;BME280;49297;43.210;27.914;2023-04-08T13:00:56;101707.28;;;19.02;44.21
63204;BME280;49297;43.210;27.914;2023-04-08T13:03:22;101717.81;;;18.79;44.20
63204;BME280;49297;43.210;27.914;2023-04-08T13:05:47;101708.44;;;18.67;44.68
63204;BME280;49297;43.210;27.914;2023-04-08T13:08:13;101704.38;;;18.62;44.86
63204;BME280;49297;43.210;27.914;2023-04-08T13:10:40;101702.41;;;18.64;44.94